This is the latest recevied weather packets stored in our database for station/object DM4XI-13. If no packets are shown the sender has not sent any weather packets the latest 10 day(s).
| Time | Temp. | Humidity | Pressure | Rain* | Wind** | Luminosity | Snow |
|---|---|---|---|---|---|---|---|
| 1777376705 | 19.44° C | 29% | 1017 hPa | 0 mm | 2.24 m/s, 9° | 615 W/m² | - |
| 1777376625 | 19.44° C | 29% | 1016.8 hPa | 0 mm | 0.89 m/s, 349° | 615 W/m² | - |
| 1777376561 | 19.44° C | 29% | 1017 hPa | 0 mm | 1.79 m/s, 330° | 617 W/m² | - |
| 1777376497 | 19.44° C | 27% | 1016.9 hPa | 0 mm | 4.02 m/s, 359° | 612 W/m² | - |
| 1777376435 | 19.44° C | 29% | 1016.8 hPa | 0 mm | 1.79 m/s, 323° | 619 W/m² | - |
| 1777376374 | 19.44° C | 31% | 1016.8 hPa | 0 mm | 0.45 m/s, 255° | 621 W/m² | - |
| 1777376313 | 19.44° C | 30% | 1016.9 hPa | 0 mm | 1.79 m/s, 174° | 623 W/m² | - |
| 1777376252 | 19.44° C | 29% | 1016.8 hPa | 0 mm | 1.34 m/s, 44° | 623 W/m² | - |
| 1777376191 | 19.44° C | 30% | 1016.8 hPa | 0 mm | 1.79 m/s, 128° | 622 W/m² | - |
| 1777376129 | 19.44° C | 29% | 1016.9 hPa | 0 mm | 0.89 m/s, 142° | 620 W/m² | - |
| 1777376069 | 19.44° C | 29% | 1017 hPa | 0 mm | 2.24 m/s, 36° | 619 W/m² | - |
| 1777376007 | 19.44° C | 32% | 1017.1 hPa | 0 mm | 0.45 m/s, 179° | 624 W/m² | - |
| 1777375946 | 19.44° C | 29% | 1016.9 hPa | 0 mm | 1.34 m/s, 324° | 621 W/m² | - |
| 1777375886 | 20° C | 30% | 1017 hPa | 0 mm | 1.34 m/s, 17° | 623 W/m² | - |
| 1777375825 | 20° C | 29% | 1016.8 hPa | 0 mm | 0.89 m/s, 175° | 625 W/m² | - |
| 1777375763 | 20° C | 29% | 1016.9 hPa | 0 mm | 2.24 m/s, 82° | 627 W/m² | - |
| 1777375703 | 20° C | 31% | 1017.1 hPa | 0 mm | 0.45 m/s, 51° | 624 W/m² | - |
| 1777375642 | 20° C | 30% | 1017.1 hPa | 0 mm | 0.45 m/s, 91° | 628 W/m² | - |
| 1777375580 | 20° C | 30% | 1016.9 hPa | 0 mm | 1.79 m/s, 1° | 621 W/m² | - |
| 1777375520 | 20° C | 30% | 1017 hPa | 0 mm | 0.45 m/s, 23° | 612 W/m² | - |
| 1777375458 | 20° C | 30% | 1016.8 hPa | 0 mm | 0.45 m/s, 198° | 612 W/m² | - |
| 1777375397 | 20° C | 29% | 1016.9 hPa | 0 mm | 1.79 m/s, 132° | 608 W/m² | - |
| 1777375337 | 20° C | 32% | 1016.9 hPa | 0 mm | 1.34 m/s, 125° | 633 W/m² | - |
| 1777375275 | 19.44° C | 31% | 1016.7 hPa | 0 mm | 0.89 m/s, 8° | 637 W/m² | - |
| 1777375215 | 19.44° C | 29% | 1017.1 hPa | 0 mm | 0.89 m/s, 28° | 642 W/m² | - |
* Rain latest hour (hover to see other rain measurements)
** Current wind speed in m/s (hover to see current wind gust speed)